Time,TemperatureF,DewpointF,PressureIn,WindDirection,WindDirectionDegrees,WindSpeedMPH,WindSpeedGustMPH,Humidity,HourlyPrecipIn,Conditions,Clouds,dailyrainin,SoftwareType,DateUTC
2013-05-17 00:08:00,52.6,47.0,29.98,NNW,330,0.0,0.0,81,0.00,,,0.00,weatherlink.com 1.10,2013-05-17 07:08:00,
2013-05-17 00:23:00,52.3,47.0,29.98,NNW,330,0.0,0.0,81,0.00,,,0.00,weatherlink.com 1.10,2013-05-17 07:23:00,
2013-05-17 00:38:00,52.2,47.0,29.98,NNW,332,0.0,0.0,81,0.00,,,0.00,weatherlink.com 1.10,2013-05-17 07:38:00,
2013-05-17 00:53:00,52.0,46.0,29.97,NNW,330,0.0,0.0,81,0.00,,,0.00,weatherlink.com 1.10,2013-05-17 07:53:00,
2013-05-17 01:08:00,51.6,46.0,29.97,NNW,330,0.0,0.0,82,0.00,,,0.00,weatherlink.com 1.10,2013-05-17 08:08:00,
2013-05-17 01:23:00,51.3,46.0,29.97,NNW,330,0.0,0.0,83,0.00,,,0.00,weatherlink.com 1.10,2013-05-17 08:23:00,
2013-05-17 01:38:00,50.8,46.0,29.98,NNW,330,0.0,0.0,83,0.00,,,0.00,weatherlink.com 1.10,2013-05-17 08:38:00,
2013-05-17 01:53:00,50.5,46.0,29.98,NNW,330,0.0,0.0,83,0.00,,,0.00,weatherlink.com 1.10,2013-05-17 08:53:00,
2013-05-17 02:09:00,50.0,45.0,29.97,NNW,330,0.0,0.0,84,0.00,,,0.00,weatherlink.com 1.10,2013-05-17 09:09:00,
2013-05-17 02:23:00,49.6,45.0,29.97,NNW,330,0.0,0.0,85,0.00,,,0.00,weatherlink.com 1.10,2013-05-17 09:23:00,
2013-05-17 02:38:00,49.2,45.0,29.97,NNW,330,0.0,0.0,85,0.00,,,0.00,weatherlink.com 1.10,2013-05-17 09:38:00,
2013-05-17 02:53:00,48.8,45.0,29.97,NNW,330,0.0,0.0,86,0.00,,,0.00,weatherlink.com 1.10,2013-05-17 09:53:00,
2013-05-17 03:08:00,48.5,45.0,29.97,NNW,330,0.0,0.0,86,0.00,,,0.00,weatherlink.com 1.10,2013-05-17 10:08:00,
2013-05-17 03:23:00,48.1,44.0,29.96,NNW,330,0.0,0.0,87,0.00,,,0.00,weatherlink.com 1.10,2013-05-17 10:23:00,
2013-05-17 03:38:00,47.8,44.0,29.97,NNW,330,0.0,0.0,87,0.00,,,0.00,weatherlink.com 1.10,2013-05-17 10:38:00,
2013-05-17 03:53:00,47.3,44.0,29.97,NNW,330,0.0,0.0,88,0.00,,,0.00,weatherlink.com 1.10,2013-05-17 10:53:00,
2013-05-17 04:08:00,47.0,44.0,29.97,NNW,330,0.0,0.0,88,0.00,,,0.00,weatherlink.com 1.10,2013-05-17 11:08:00,
2013-05-17 04:23:00,46.6,44.0,29.97,NNW,330,0.0,0.0,89,0.00,,,0.00,weatherlink.com 1.10,2013-05-17 11:23:00,
2013-05-17 04:38:00,46.5,44.0,29.97,NNW,330,0.0,0.0,89,0.00,,,0.00,weatherlink.com 1.10,2013-05-17 11:38:00,
2013-05-17 04:53:00,46.4,43.0,29.97,NNW,330,0.0,0.0,89,0.00,,,0.00,weatherlink.com 1.10,2013-05-17 11:53:00,
2013-05-17 05:08:00,46.1,43.0,29.98,NNW,330,0.0,0.0,90,0.00,,,0.00,weatherlink.com 1.10,2013-05-17 12:08:00,
2013-05-17 05:23:00,45.9,43.0,29.98,NNW,330,0.0,0.0,90,0.00,,,0.00,weatherlink.com 1.10,2013-05-17 12:23:00,
2013-05-17 05:38:00,45.6,43.0,29.98,NNW,330,0.0,0.0,90,0.00,,,0.00,weatherlink.com 1.10,2013-05-17 12:38:00,
2013-05-17 05:53:00,45.2,43.0,29.98,NNW,330,0.0,0.0,91,0.00,,,0.00,weatherlink.com 1.10,2013-05-17 12:53:00,
2013-05-17 06:08:00,45.0,43.0,29.98,NNW,330,0.0,0.0,91,0.00,,,0.00,weatherlink.com 1.10,2013-05-17 13:08:00,
2013-05-17 06:23:00,44.9,43.0,29.98,NNW,330,0.0,0.0,91,0.00,,,0.00,weatherlink.com 1.10,2013-05-17 13:23:00,
2013-05-17 06:38:00,44.9,43.0,29.99,NNW,330,0.0,0.0,92,0.00,,,0.00,weatherlink.com 1.10,2013-05-17 13:38:00,
2013-05-17 06:53:00,44.9,43.0,30.00,NNW,330,0.0,0.0,92,0.00,,,0.00,weatherlink.com 1.10,2013-05-17 13:53:00,
2013-05-17 07:08:00,45.0,43.0,30.00,NNW,330,0.0,0.0,92,0.00,,,0.00,weatherlink.com 1.10,2013-05-17 14:08:00,
2013-05-17 07:23:00,45.2,43.0,30.01,NNW,330,0.0,0.0,92,0.00,,,0.00,weatherlink.com 1.10,2013-05-17 14:23:00,
2013-05-17 07:39:00,45.5,43.0,30.01,NNW,330,0.0,0.0,92,0.00,,,0.00,weatherlink.com 1.10,2013-05-17 14:39:00,
2013-05-17 07:54:00,45.8,44.0,30.01,NNW,330,0.0,0.0,93,0.00,,,0.00,weatherlink.com 1.10,2013-05-17 14:54:00,
2013-05-17 08:09:00,46.4,45.0,30.00,NNW,332,0.0,0.0,93,0.00,,,0.00,weatherlink.com 1.10,2013-05-17 15:09:00,
2013-05-17 08:24:00,47.2,45.0,30.00,NNW,332,0.0,0.0,93,0.00,,,0.00,weatherlink.com 1.10,2013-05-17 15:24:00,
2013-05-17 08:39:00,48.5,47.0,30.00,NNW,332,0.0,0.0,93,0.00,,,0.00,weatherlink.com 1.10,2013-05-17 15:39:00,
2013-05-17 08:54:00,50.1,47.0,30.00,NNW,332,0.0,0.0,90,0.00,,,0.00,weatherlink.com 1.10,2013-05-17 15:54:00,
2013-05-17 09:09:00,51.9,48.0,30.00,NNW,332,0.0,0.0,86,0.00,,,0.00,weatherlink.com 1.10,2013-05-17 16:09:00,
2013-05-17 09:24:00,53.4,48.0,30.00,NNW,332,0.0,0.0,83,0.00,,,0.00,weatherlink.com 1.10,2013-05-17 16:24:00,
2013-05-17 09:39:00,55.0,49.0,30.00,NNE,13,0.0,0.0,81,0.00,,,0.00,weatherlink.com 1.10,2013-05-17 16:39:00,
2013-05-17 09:54:00,57.3,49.0,30.00,ESE,103,0.0,0.0,75,0.00,,,0.00,weatherlink.com 1.10,2013-05-17 16:54:00,
2013-05-17 10:09:00,58.9,49.0,30.00,ESE,115,1.0,2.0,71,0.00,,,0.00,weatherlink.com 1.10,2013-05-17 17:09:00,
2013-05-17 10:24:00,60.2,49.0,30.00,ESE,105,0.0,1.0,67,0.00,,,0.00,weatherlink.com 1.10,2013-05-17 17:24:00,
2013-05-17 10:39:00,61.3,49.0,30.00,SE,143,0.0,2.0,64,0.00,,,0.00,weatherlink.com 1.10,2013-05-17 17:39:00,
2013-05-17 10:54:00,61.9,49.0,30.00,South,181,0.0,2.0,62,0.00,,,0.00,weatherlink.com 1.10,2013-05-17 17:54:00,
2013-05-17 11:09:00,62.7,49.0,30.00,SE,132,0.0,0.0,62,0.00,,,0.00,weatherlink.com 1.10,2013-05-17 18:09:00,
2013-05-17 11:24:00,63.4,49.0,30.01,SSE,153,0.0,0.0,60,0.00,,,0.00,weatherlink.com 1.10,2013-05-17 18:24:00,
2013-05-17 11:39:00,64.3,49.0,30.00,SE,139,1.0,2.0,59,0.00,,,0.00,weatherlink.com 1.10,2013-05-17 18:39:00,
2013-05-17 11:54:00,65.1,49.0,30.01,WNW,291,1.0,4.0,57,0.00,,,0.00,weatherlink.com 1.10,2013-05-17 18:54:00,
2013-05-17 12:09:00,65.7,49.0,30.00,SW,229,1.0,2.0,55,0.00,,,0.00,weatherlink.com 1.10,2013-05-17 19:09:00,
2013-05-17 12:24:00,65.6,49.0,30.00,South,187,1.0,3.0,55,0.00,,,0.00,weatherlink.com 1.10,2013-05-17 19:24:00,
2013-05-17 12:39:00,66.2,48.0,30.00,South,172,0.0,3.0,53,0.00,,,0.00,weatherlink.com 1.10,2013-05-17 19:39:00,
2013-05-17 12:54:00,66.8,49.0,30.00,West,277,0.0,2.0,53,0.00,,,0.00,weatherlink.com 1.10,2013-05-17 19:54:00,
2013-05-17 13:09:00,67.4,50.0,30.00,SW,225,0.0,2.0,54,0.00,,,0.00,weatherlink.com 1.10,2013-05-17 20:09:00,
2013-05-17 13:24:00,68.3,51.0,30.00,NNW,332,0.0,2.0,54,0.00,,,0.00,weatherlink.com 1.10,2013-05-17 20:24:00,
2013-05-17 13:39:00,68.7,51.0,29.99,WNW,295,1.0,3.0,53,0.00,,,0.00,weatherlink.com 1.10,2013-05-17 20:39:00,
2013-05-17 13:54:00,69.0,50.0,29.99,South,190,1.0,2.0,52,0.00,,,0.00,weatherlink.com 1.10,2013-05-17 20:54:00,
2013-05-17 14:09:00,69.2,50.0,29.99,WSW,252,1.0,3.0,51,0.00,,,0.00,weatherlink.com 1.10,2013-05-17 21:09:00,
2013-05-17 14:24:00,69.4,49.0,29.99,SW,215,2.0,3.0,48,0.00,,,0.00,weatherlink.com 1.10,2013-05-17 21:24:00,
2013-05-17 14:39:00,69.2,50.0,29.99,SW,215,0.0,3.0,50,0.00,,,0.00,weatherlink.com 1.10,2013-05-17 21:39:00,
2013-05-17 14:54:00,68.8,50.0,29.99,SW,220,0.0,4.0,52,0.00,,,0.00,weatherlink.com 1.10,2013-05-17 21:54:00,
2013-05-17 15:09:00,69.0,51.0,29.99,SW,232,1.0,3.0,53,0.00,,,0.00,weatherlink.com 1.10,2013-05-17 22:09:00,
2013-05-17 15:25:00,68.5,51.0,29.99,SSW,212,1.0,3.0,54,0.00,,,0.00,weatherlink.com 1.10,2013-05-17 22:25:00,
2013-05-17 15:40:00,68.7,51.0,29.99,SSW,197,1.0,4.0,54,0.00,,,0.00,weatherlink.com 1.10,2013-05-17 22:40:00,
2013-05-17 15:55:00,68.4,51.0,29.99,SW,219,0.0,3.0,55,0.00,,,0.00,weatherlink.com 1.10,2013-05-17 22:55:00,
2013-05-17 16:10:00,68.5,51.0,29.99,South,181,1.0,4.0,54,0.00,,,0.00,weatherlink.com 1.10,2013-05-17 23:10:00,
2013-05-17 16:25:00,68.4,51.0,29.98,SSW,200,1.0,3.0,55,0.00,,,0.00,weatherlink.com 1.10,2013-05-17 23:25:00,
2013-05-17 16:40:00,68.1,51.0,29.98,SSW,204,2.0,3.0,54,0.00,,,0.00,weatherlink.com 1.10,2013-05-17 23:40:00,
2013-05-17 16:55:00,67.7,51.0,29.98,SW,214,1.0,3.0,56,0.00,,,0.00,weatherlink.com 1.10,2013-05-17 23:55:00,
2013-05-17 17:10:00,67.7,51.0,29.98,SSW,203,1.0,3.0,55,0.00,,,0.00,weatherlink.com 1.10,2013-05-18 00:10:00,
2013-05-17 17:25:00,67.1,50.0,29.98,SSW,197,0.0,2.0,55,0.00,,,0.00,weatherlink.com 1.10,2013-05-18 00:25:00,
2013-05-17 17:40:00,66.0,50.0,29.99,SW,229,1.0,4.0,56,0.00,,,0.00,weatherlink.com 1.10,2013-05-18 00:40:00,
2013-05-17 17:55:00,65.0,50.0,29.99,NNW,328,0.0,1.0,59,0.00,,,0.00,weatherlink.com 1.10,2013-05-18 00:55:00,
2013-05-17 18:10:00,64.6,51.0,29.99,North,356,0.0,2.0,61,0.00,,,0.00,weatherlink.com 1.10,2013-05-18 01:10:00,
2013-05-17 18:25:00,64.0,51.0,29.99,West,274,1.0,1.0,62,0.00,,,0.00,weatherlink.com 1.10,2013-05-18 01:25:00,
2013-05-17 18:40:00,63.6,50.0,29.99,WNW,298,0.0,1.0,61,0.00,,,0.00,weatherlink.com 1.10,2013-05-18 01:40:00,
2013-05-17 18:55:00,62.8,51.0,29.99,NNW,339,0.0,1.0,65,0.00,,,0.00,weatherlink.com 1.10,2013-05-18 01:55:00,
2013-05-17 19:10:00,61.9,51.0,29.99,NNW,338,0.0,1.0,67,0.00,,,0.00,weatherlink.com 1.10,2013-05-18 02:10:00,
2013-05-17 19:25:00,61.2,51.0,30.00,NNW,340,0.0,0.0,69,0.00,,,0.00,weatherlink.com 1.10,2013-05-18 02:25:00,
2013-05-17 19:40:00,60.6,50.0,30.00,NNW,340,0.0,0.0,69,0.00,,,0.00,weatherlink.com 1.10,2013-05-18 02:40:00,
2013-05-17 19:55:00,59.9,50.0,30.01,NNW,340,0.0,0.0,71,0.00,,,0.00,weatherlink.com 1.10,2013-05-18 02:55:00,
2013-05-17 20:10:00,59.2,50.0,30.01,NNW,340,0.0,0.0,71,0.00,,,0.00,weatherlink.com 1.10,2013-05-18 03:10:00,
2013-05-17 20:25:00,58.5,50.0,30.01,NNW,340,0.0,0.0,73,0.00,,,0.00,weatherlink.com 1.10,2013-05-18 03:25:00,
2013-05-17 20:40:00,57.8,50.0,30.02,NNW,340,0.0,0.0,74,0.00,,,0.00,weatherlink.com 1.10,2013-05-18 03:40:00,
2013-05-17 20:56:00,57.1,50.0,30.02,NNW,340,0.0,0.0,76,0.00,,,0.00,weatherlink.com 1.10,2013-05-18 03:56:00,
2013-05-17 21:10:00,56.4,49.0,30.03,NNW,340,0.0,0.0,77,0.00,,,0.00,weatherlink.com 1.10,2013-05-18 04:10:00,
2013-05-17 21:25:00,55.6,49.0,30.04,NNW,340,0.0,0.0,77,0.00,,,0.00,weatherlink.com 1.10,2013-05-18 04:25:00,
2013-05-17 21:40:00,55.1,48.0,30.04,NNW,339,0.0,0.0,78,0.00,,,0.00,weatherlink.com 1.10,2013-05-18 04:40:00,
2013-05-17 21:55:00,54.5,48.0,30.05,NNW,340,0.0,0.0,79,0.00,,,0.00,weatherlink.com 1.10,2013-05-18 04:55:00,
2013-05-17 22:10:00,53.8,48.0,30.05,NNW,339,0.0,0.0,80,0.00,,,0.00,weatherlink.com 1.10,2013-05-18 05:10:00,
2013-05-17 22:25:00,53.2,47.0,30.06,NNW,338,0.0,0.0,80,0.00,,,0.00,weatherlink.com 1.10,2013-05-18 05:25:00,
2013-05-17 22:40:00,52.8,47.0,30.07,NNW,338,0.0,0.0,81,0.00,,,0.00,weatherlink.com 1.10,2013-05-18 05:40:00,
2013-05-17 22:55:00,52.3,47.0,30.07,NNW,339,0.0,0.0,82,0.00,,,0.00,weatherlink.com 1.10,2013-05-18 05:55:00,
2013-05-17 23:10:00,51.7,47.0,30.07,NNW,338,0.0,0.0,83,0.00,,,0.00,weatherlink.com 1.10,2013-05-18 06:10:00,
2013-05-17 23:25:00,51.2,47.0,30.07,NNW,338,0.0,0.0,85,0.00,,,0.00,weatherlink.com 1.10,2013-05-18 06:25:00,
2013-05-17 23:40:00,50.8,47.0,30.07,NNW,338,0.0,0.0,85,0.00,,,0.00,weatherlink.com 1.10,2013-05-18 06:40:00,
2013-05-17 23:55:00,50.4,46.0,30.06,NNW,338,0.0,0.0,85,0.00,,,0.00,weatherlink.com 1.10,2013-05-18 06:55:00,